sensor_id;sensor_type;location;lat;lon;timestamp;pressure;altitude;pressure_sealevel;temperature;humidity
34241;BME280;20503;50.200;19.508;2023-05-25T00:02:24;101873.87;;;12.43;100.00
34241;BME280;20503;50.200;19.508;2023-05-25T00:07:33;101874.97;;;12.27;100.00
34241;BME280;20503;50.200;19.508;2023-05-25T00:12:40;101882.90;;;12.37;100.00
34241;BME280;20503;50.200;19.508;2023-05-25T00:17:48;101879.95;;;12.38;100.00
34241;BME280;20503;50.200;19.508;2023-05-25T00:22:56;101869.99;;;12.37;100.00
34241;BME280;20503;50.200;19.508;2023-05-25T00:28:03;101878.37;;;12.29;100.00
34241;BME280;20503;50.200;19.508;2023-05-25T00:33:11;101879.85;;;12.32;100.00
34241;BME280;20503;50.200;19.508;2023-05-25T00:38:19;101889.43;;;12.36;100.00
34241;BME280;20503;50.200;19.508;2023-05-25T00:43:27;101892.28;;;12.28;100.00
34241;BME280;20503;50.200;19.508;2023-05-25T00:48:35;101894.63;;;12.31;100.00
34241;BME280;20503;50.200;19.508;2023-05-25T00:53:43;101891.63;;;12.26;100.00
34241;BME280;20503;50.200;19.508;2023-05-25T00:58:53;101894.63;;;12.31;100.00
34241;BME280;20503;50.200;19.508;2023-05-25T01:04:00;101881.02;;;12.23;100.00
34241;BME280;20503;50.200;19.508;2023-05-25T01:09:07;101890.58;;;12.27;100.00
34241;BME280;20503;50.200;19.508;2023-05-25T01:14:18;101889.35;;;12.15;100.00
34241;BME280;20503;50.200;19.508;2023-05-25T01:19:22;101890.13;;;12.09;100.00
34241;BME280;20503;50.200;19.508;2023-05-25T01:24:37;101892.40;;;12.05;100.00
34241;BME280;20503;50.200;19.508;2023-05-25T01:29:44;101878.28;;;12.08;100.00
34241;BME280;20503;50.200;19.508;2023-05-25T01:34:49;101900.46;;;12.07;100.00
34241;BME280;20503;50.200;19.508;2023-05-25T01:39:56;101894.40;;;12.11;100.00
34241;BME280;20503;50.200;19.508;2023-05-25T01:45:02;101892.60;;;12.04;100.00
34241;BME280;20503;50.200;19.508;2023-05-25T01:50:28;101896.84;;;12.06;100.00
34241;BME280;20503;50.200;19.508;2023-05-25T01:55:26;101881.98;;;12.01;100.00
34241;BME280;20503;50.200;19.508;2023-05-25T02:00:30;101871.22;;;11.99;100.00
34241;BME280;20503;50.200;19.508;2023-05-25T02:05:33;101879.06;;;12.02;100.00
34241;BME280;20503;50.200;19.508;2023-05-25T02:10:41;101867.81;;;11.97;100.00
34241;BME280;20503;50.200;19.508;2023-05-25T02:15:49;101865.46;;;11.94;100.00
34241;BME280;20503;50.200;19.508;2023-05-25T02:20:57;101875.48;;;11.87;100.00
34241;BME280;20503;50.200;19.508;2023-05-25T02:26:04;101870.64;;;11.89;100.00
34241;BME280;20503;50.200;19.508;2023-05-25T02:31:12;101864.20;;;11.97;100.00
34241;BME280;20503;50.200;19.508;2023-05-25T02:36:20;101877.27;;;11.95;100.00
34241;BME280;20503;50.200;19.508;2023-05-25T02:41:28;101877.08;;;11.82;100.00
34241;BME280;20503;50.200;19.508;2023-05-25T02:46:36;101871.52;;;11.90;100.00
34241;BME280;20503;50.200;19.508;2023-05-25T02:51:44;101869.99;;;11.87;100.00
34241;BME280;20503;50.200;19.508;2023-05-25T02:56:52;101870.86;;;11.88;100.00
34241;BME280;20503;50.200;19.508;2023-05-25T03:02:00;101875.95;;;11.91;100.00
34241;BME280;20503;50.200;19.508;2023-05-25T03:07:08;101880.12;;;11.87;100.00
34241;BME280;20503;50.200;19.508;2023-05-25T03:12:16;101879.45;;;11.70;100.00
34241;BME280;20503;50.200;19.508;2023-05-25T03:17:23;101872.37;;;11.76;100.00
34241;BME280;20503;50.200;19.508;2023-05-25T03:22:31;101875.18;;;11.68;100.00
34241;BME280;20503;50.200;19.508;2023-05-25T03:27:39;101887.79;;;11.62;100.00
34241;BME280;20503;50.200;19.508;2023-05-25T03:32:47;101889.94;;;11.67;100.00
34241;BME280;20503;50.200;19.508;2023-05-25T03:37:55;101886.47;;;11.73;100.00
34241;BME280;20503;50.200;19.508;2023-05-25T03:43:03;101878.80;;;11.68;100.00
34241;BME280;20503;50.200;19.508;2023-05-25T03:48:10;101875.77;;;11.63;100.00
34241;BME280;20503;50.200;19.508;2023-05-25T03:53:18;101894.69;;;11.73;100.00
34241;BME280;20503;50.200;19.508;2023-05-25T03:58:27;101888.14;;;11.59;100.00
34241;BME280;20503;50.200;19.508;2023-05-25T04:03:35;101897.83;;;11.70;100.00
34241;BME280;20503;50.200;19.508;2023-05-25T04:08:42;101896.78;;;11.71;100.00
34241;BME280;20503;50.200;19.508;2023-05-25T04:13:51;101900.74;;;11.68;100.00
34241;BME280;20503;50.200;19.508;2023-05-25T04:18:58;101906.29;;;11.60;100.00
34241;BME280;20503;50.200;19.508;2023-05-25T04:24:07;101912.38;;;11.70;100.00
34241;BME280;20503;50.200;19.508;2023-05-25T04:29:14;101914.27;;;11.70;100.00
34241;BME280;20503;50.200;19.508;2023-05-25T04:34:22;101916.25;;;11.76;100.00
34241;BME280;20503;50.200;19.508;2023-05-25T04:39:31;101924.52;;;11.53;100.00
34241;BME280;20503;50.200;19.508;2023-05-25T04:44:38;101925.70;;;11.59;100.00
34241;BME280;20503;50.200;19.508;2023-05-25T04:49:46;101926.36;;;11.75;100.00
34241;BME280;20503;50.200;19.508;2023-05-25T04:54:54;101932.82;;;11.82;100.00
34241;BME280;20503;50.200;19.508;2023-05-25T05:00:02;101941.98;;;11.89;100.00
34241;BME280;20503;50.200;19.508;2023-05-25T05:05:09;101928.20;;;11.97;100.00
34241;BME280;20503;50.200;19.508;2023-05-25T05:10:17;101939.45;;;11.88;100.00
34241;BME280;20503;50.200;19.508;2023-05-25T05:15:25;101932.44;;;11.71;100.00
34241;BME280;20503;50.200;19.508;2023-05-25T05:20:33;101939.80;;;11.85;100.00
34241;BME280;20503;50.200;19.508;2023-05-25T05:25:40;101953.61;;;11.91;100.00
34241;BME280;20503;50.200;19.508;2023-05-25T05:30:48;101959.30;;;11.90;100.00
34241;BME280;20503;50.200;19.508;2023-05-25T05:35:56;101960.91;;;11.99;100.00
34241;BME280;20503;50.200;19.508;2023-05-25T05:41:03;101957.88;;;11.94;100.00
34241;BME280;20503;50.200;19.508;2023-05-25T05:46:13;101948.81;;;12.08;100.00
34241;BME280;20503;50.200;19.508;2023-05-25T05:51:18;101974.28;;;12.16;100.00
34241;BME280;20503;50.200;19.508;2023-05-25T05:56:26;101973.79;;;12.13;100.00
34241;BME280;20503;50.200;19.508;2023-05-25T06:01:34;101983.73;;;12.14;100.00
34241;BME280;20503;50.200;19.508;2023-05-25T06:06:41;101991.13;;;12.13;100.00
34241;BME280;20503;50.200;19.508;2023-05-25T06:11:49;101986.19;;;12.09;100.00
34241;BME280;20503;50.200;19.508;2023-05-25T06:16:57;101995.37;;;12.16;100.00
34241;BME280;20503;50.200;19.508;2023-05-25T06:22:05;102004.37;;;12.10;100.00
34241;BME280;20503;50.200;19.508;2023-05-25T06:27:13;102009.77;;;12.32;100.00
34241;BME280;20503;50.200;19.508;2023-05-25T06:32:21;102010.26;;;12.36;100.00
34241;BME280;20503;50.200;19.508;2023-05-25T06:37:29;102011.09;;;12.36;100.00
34241;BME280;20503;50.200;19.508;2023-05-25T06:42:37;102001.63;;;12.39;100.00
34241;BME280;20503;50.200;19.508;2023-05-25T06:47:44;102007.13;;;12.39;100.00
34241;BME280;20503;50.200;19.508;2023-05-25T06:52:52;102010.05;;;12.37;100.00
34241;BME280;20503;50.200;19.508;2023-05-25T06:57:59;102015.75;;;12.36;100.00
34241;BME280;20503;50.200;19.508;2023-05-25T07:03:08;102021.91;;;12.38;100.00
34241;BME280;20503;50.200;19.508;2023-05-25T07:08:15;102020.10;;;12.30;100.00
34241;BME280;20503;50.200;19.508;2023-05-25T07:13:23;102024.72;;;12.30;100.00
34241;BME280;20503;50.200;19.508;2023-05-25T07:18:31;102029.35;;;12.58;100.00
34241;BME280;20503;50.200;19.508;2023-05-25T07:23:38;102031.79;;;12.82;100.00
34241;BME280;20503;50.200;19.508;2023-05-25T07:28:46;102041.73;;;12.83;100.00
34241;BME280;20503;50.200;19.508;2023-05-25T07:33:54;102040.61;;;12.78;100.00
34241;BME280;20503;50.200;19.508;2023-05-25T07:39:03;102038.52;;;12.80;100.00
34241;BME280;20503;50.200;19.508;2023-05-25T07:44:10;102034.84;;;12.73;100.00
34241;BME280;20503;50.200;19.508;2023-05-25T07:49:18;102039.47;;;12.87;100.00
34241;BME280;20503;50.200;19.508;2023-05-25T07:54:26;102036.45;;;12.96;100.00
34241;BME280;20503;50.200;19.508;2023-05-25T07:59:34;102043.81;;;13.10;100.00
34241;BME280;20503;50.200;19.508;2023-05-25T08:04:42;102046.34;;;13.12;100.00
34241;BME280;20503;50.200;19.508;2023-05-25T08:09:50;102052.34;;;13.01;100.00
34241;BME280;20503;50.200;19.508;2023-05-25T08:14:58;102047.40;;;13.11;100.00
34241;BME280;20503;50.200;19.508;2023-05-25T08:20:07;102049.40;;;13.37;100.00
34241;BME280;20503;50.200;19.508;2023-05-25T08:25:14;102047.41;;;13.31;100.00
34241;BME280;20503;50.200;19.508;2023-05-25T08:30:21;102050.82;;;13.33;100.00
34241;BME280;20503;50.200;19.508;2023-05-25T08:35:29;102049.06;;;13.68;100.00
34241;BME280;20503;50.200;19.508;2023-05-25T08:40:40;102041.39;;;13.63;100.00
34241;BME280;20503;50.200;19.508;2023-05-25T08:45:44;102041.11;;;13.79;100.00
34241;BME280;20503;50.200;19.508;2023-05-25T08:50:53;102039.04;;;13.60;100.00
34241;BME280;20503;50.200;19.508;2023-05-25T08:56:03;102042.31;;;13.49;100.00
34241;BME280;20503;50.200;19.508;2023-05-25T09:01:09;102050.98;;;13.67;100.00
34241;BME280;20503;50.200;19.508;2023-05-25T09:06:16;102046.91;;;13.84;100.00
34241;BME280;20503;50.200;19.508;2023-05-25T09:11:26;102050.08;;;13.88;100.00
34241;BME280;20503;50.200;19.508;2023-05-25T09:16:31;102041.13;;;14.07;100.00
34241;BME280;20503;50.200;19.508;2023-05-25T09:21:39;102048.31;;;14.01;100.00
34241;BME280;20503;50.200;19.508;2023-05-25T09:26:46;102063.85;;;14.15;100.00
34241;BME280;20503;50.200;19.508;2023-05-25T09:31:59;102059.75;;;14.05;100.00
34241;BME280;20503;50.200;19.508;2023-05-25T09:37:04;102062.33;;;14.06;100.00
34241;BME280;20503;50.200;19.508;2023-05-25T09:42:11;102078.78;;;14.21;100.00
34241;BME280;20503;50.200;19.508;2023-05-25T09:47:19;102065.66;;;14.50;100.00
34241;BME280;20503;50.200;19.508;2023-05-25T09:52:26;102067.21;;;14.32;100.00
34241;BME280;20503;50.200;19.508;2023-05-25T09:57:35;102066.62;;;14.15;100.00
34241;BME280;20503;50.200;19.508;2023-05-25T10:02:42;102070.08;;;14.17;100.00
34241;BME280;20503;50.200;19.508;2023-05-25T10:07:50;102074.60;;;14.31;100.00
34241;BME280;20503;50.200;19.508;2023-05-25T10:12:58;102075.88;;;14.29;100.00
34241;BME280;20503;50.200;19.508;2023-05-25T10:18:05;102071.86;;;14.31;100.00
34241;BME280;20503;50.200;19.508;2023-05-25T10:23:15;102073.85;;;14.16;100.00
34241;BME280;20503;50.200;19.508;2023-05-25T10:28:30;102071.40;;;14.00;100.00
34241;BME280;20503;50.200;19.508;2023-05-25T10:33:34;102061.19;;;14.22;100.00
34241;BME280;20503;50.200;19.508;2023-05-25T10:38:39;102063.35;;;14.26;100.00
34241;BME280;20503;50.200;19.508;2023-05-25T10:43:45;102071.02;;;14.31;100.00
34241;BME280;20503;50.200;19.508;2023-05-25T10:48:52;102073.73;;;14.24;100.00
34241;BME280;20503;50.200;19.508;2023-05-25T10:54:02;102073.61;;;14.39;100.00
34241;BME280;20503;50.200;19.508;2023-05-25T10:59:12;102082.56;;;14.47;100.00
34241;BME280;20503;50.200;19.508;2023-05-25T11:04:16;102071.22;;;14.63;100.00
34241;BME280;20503;50.200;19.508;2023-05-25T11:09:29;102066.88;;;14.82;100.00
34241;BME280;20503;50.200;19.508;2023-05-25T11:14:38;102051.02;;;14.90;100.00
34241;BME280;20503;50.200;19.508;2023-05-25T11:19:51;102052.29;;;14.94;100.00
34241;BME280;20503;50.200;19.508;2023-05-25T11:24:56;102052.36;;;15.07;100.00
34241;BME280;20503;50.200;19.508;2023-05-25T11:29:58;102055.38;;;15.25;100.00
34241;BME280;20503;50.200;19.508;2023-05-25T11:35:05;102058.78;;;15.27;100.00
34241;BME280;20503;50.200;19.508;2023-05-25T11:40:11;102044.17;;;14.80;100.00
34241;BME280;20503;50.200;19.508;2023-05-25T11:45:21;102047.67;;;15.01;100.00
34241;BME280;20503;50.200;19.508;2023-05-25T11:50:27;102055.82;;;15.28;100.00
34241;BME280;20503;50.200;19.508;2023-05-25T11:55:35;102054.80;;;15.29;100.00
34241;BME280;20503;50.200;19.508;2023-05-25T12:00:42;102051.34;;;15.21;100.00
34241;BME280;20503;50.200;19.508;2023-05-25T12:05:51;102048.34;;;15.09;100.00
34241;BME280;20503;50.200;19.508;2023-05-25T12:10:59;102048.53;;;15.08;100.00
34241;BME280;20503;50.200;19.508;2023-05-25T12:16:06;102044.84;;;15.48;100.00
34241;BME280;20503;50.200;19.508;2023-05-25T12:21:15;102047.09;;;15.18;100.00
34241;BME280;20503;50.200;19.508;2023-05-25T12:26:22;102046.61;;;15.02;100.00
34241;BME280;20503;50.200;19.508;2023-05-25T12:31:34;102042.84;;;15.09;100.00
34241;BME280;20503;50.200;19.508;2023-05-25T12:36:43;102049.07;;;15.37;100.00
34241;BME280;20503;50.200;19.508;2023-05-25T12:41:50;102046.98;;;15.52;100.00
34241;BME280;20503;50.200;19.508;2023-05-25T12:46:55;102041.28;;;15.60;100.00
34241;BME280;20503;50.200;19.508;2023-05-25T12:52:09;102043.04;;;15.14;100.00
34241;BME280;20503;50.200;19.508;2023-05-25T12:57:12;102030.74;;;15.23;100.00
34241;BME280;20503;50.200;19.508;2023-05-25T13:02:18;102040.13;;;15.29;100.00
34241;BME280;20503;50.200;19.508;2023-05-25T13:07:26;102029.47;;;15.19;100.00
34241;BME280;20503;50.200;19.508;2023-05-25T13:12:34;102027.44;;;15.41;100.00
34241;BME280;20503;50.200;19.508;2023-05-25T13:17:42;102025.77;;;15.53;100.00
34241;BME280;20503;50.200;19.508;2023-05-25T13:22:51;102019.38;;;15.52;100.00
34241;BME280;20503;50.200;19.508;2023-05-25T13:27:58;102011.54;;;15.56;100.00
34241;BME280;20503;50.200;19.508;2023-05-25T13:33:05;102011.72;;;15.48;100.00
34241;BME280;20503;50.200;19.508;2023-05-25T13:38:12;102020.01;;;15.48;100.00
34241;BME280;20503;50.200;19.508;2023-05-25T13:43:20;102018.56;;;15.58;100.00
34241;BME280;20503;50.200;19.508;2023-05-25T13:48:28;102010.88;;;15.41;100.00
34241;BME280;20503;50.200;19.508;2023-05-25T13:53:35;102007.91;;;15.42;100.00
34241;BME280;20503;50.200;19.508;2023-05-25T13:58:43;102009.59;;;15.30;100.00
34241;BME280;20503;50.200;19.508;2023-05-25T14:03:50;102014.29;;;15.49;100.00
34241;BME280;20503;50.200;19.508;2023-05-25T14:08:58;102009.16;;;15.33;100.00
34241;BME280;20503;50.200;19.508;2023-05-25T14:14:05;102007.91;;;15.36;100.00
34241;BME280;20503;50.200;19.508;2023-05-25T14:19:13;101998.90;;;15.14;100.00
34241;BME280;20503;50.200;19.508;2023-05-25T14:24:21;101999.38;;;15.31;100.00
34241;BME280;20503;50.200;19.508;2023-05-25T14:29:28;101996.02;;;15.42;100.00
34241;BME280;20503;50.200;19.508;2023-05-25T14:34:36;101990.08;;;15.51;100.00
34241;BME280;20503;50.200;19.508;2023-05-25T14:39:44;101985.62;;;15.44;100.00
34241;BME280;20503;50.200;19.508;2023-05-25T14:44:52;101988.34;;;15.24;100.00
34241;BME280;20503;50.200;19.508;2023-05-25T14:49:59;101983.22;;;15.28;100.00
34241;BME280;20503;50.200;19.508;2023-05-25T14:55:08;101989.02;;;15.33;100.00
34241;BME280;20503;50.200;19.508;2023-05-25T15:00:15;101985.53;;;15.11;100.00
34241;BME280;20503;50.200;19.508;2023-05-25T15:05:22;101995.17;;;15.35;100.00
34241;BME280;20503;50.200;19.508;2023-05-25T15:10:30;101993.24;;;15.35;100.00
34241;BME280;20503;50.200;19.508;2023-05-25T15:15:37;101990.65;;;15.21;100.00
34241;BME280;20503;50.200;19.508;2023-05-25T15:20:45;101987.62;;;14.97;100.00
34241;BME280;20503;50.200;19.508;2023-05-25T15:25:52;101992.26;;;14.96;100.00
34241;BME280;20503;50.200;19.508;2023-05-25T15:31:01;101984.45;;;15.00;100.00
34241;BME280;20503;50.200;19.508;2023-05-25T15:36:09;101981.88;;;14.98;100.00
34241;BME280;20503;50.200;19.508;2023-05-25T15:41:17;101978.09;;;14.99;100.00
34241;BME280;20503;50.200;19.508;2023-05-25T15:46:24;101978.96;;;15.12;100.00
34241;BME280;20503;50.200;19.508;2023-05-25T15:51:32;101964.95;;;15.20;100.00
34241;BME280;20503;50.200;19.508;2023-05-25T15:56:40;101966.27;;;15.31;100.00
34241;BME280;20503;50.200;19.508;2023-05-25T16:01:47;101971.16;;;15.29;100.00
34241;BME280;20503;50.200;19.508;2023-05-25T16:06:55;101968.41;;;15.35;100.00
34241;BME280;20503;50.200;19.508;2023-05-25T16:12:03;101970.12;;;15.43;100.00
34241;BME280;20503;50.200;19.508;2023-05-25T16:17:10;101972.04;;;15.36;100.00
34241;BME280;20503;50.200;19.508;2023-05-25T16:22:18;101961.14;;;15.28;100.00
34241;BME280;20503;50.200;19.508;2023-05-25T16:27:26;101963.48;;;15.18;100.00
34241;BME280;20503;50.200;19.508;2023-05-25T16:32:34;101966.28;;;15.37;100.00
34241;BME280;20503;50.200;19.508;2023-05-25T16:37:41;101958.87;;;15.38;100.00
34241;BME280;20503;50.200;19.508;2023-05-25T16:42:49;101962.07;;;15.41;100.00
34241;BME280;20503;50.200;19.508;2023-05-25T16:47:57;101962.27;;;15.46;100.00
34241;BME280;20503;50.200;19.508;2023-05-25T16:56:35;101973.76;;;15.50;100.00
34241;BME280;20503;50.200;19.508;2023-05-25T17:01:43;101973.30;;;15.40;100.00
34241;BME280;20503;50.200;19.508;2023-05-25T17:06:50;101971.40;;;15.34;100.00
34241;BME280;20503;50.200;19.508;2023-05-25T17:11:58;101956.11;;;15.38;100.00
34241;BME280;20503;50.200;19.508;2023-05-25T17:17:05;101960.08;;;15.09;100.00
34241;BME280;20503;50.200;19.508;2023-05-25T17:22:13;101969.18;;;15.10;100.00
34241;BME280;20503;50.200;19.508;2023-05-25T17:27:21;101976.38;;;15.04;100.00
34241;BME280;20503;50.200;19.508;2023-05-25T17:32:28;101972.98;;;15.03;100.00
34241;BME280;20503;50.200;19.508;2023-05-25T17:37:37;101960.70;;;15.05;100.00
34241;BME280;20503;50.200;19.508;2023-05-25T17:42:44;101965.15;;;15.06;100.00
34241;BME280;20503;50.200;19.508;2023-05-25T17:47:52;101962.81;;;15.03;100.00
34241;BME280;20503;50.200;19.508;2023-05-25T17:53:00;101968.70;;;14.87;100.00
34241;BME280;20503;50.200;19.508;2023-05-25T17:58:08;101970.30;;;14.62;100.00
34241;BME280;20503;50.200;19.508;2023-05-25T18:03:15;101968.30;;;14.43;100.00
34241;BME280;20503;50.200;19.508;2023-05-25T18:08:23;101977.77;;;14.28;100.00
34241;BME280;20503;50.200;19.508;2023-05-25T18:13:30;101975.27;;;14.05;100.00
34241;BME280;20503;50.200;19.508;2023-05-25T18:18:38;101978.45;;;13.81;100.00
34241;BME280;20503;50.200;19.508;2023-05-25T18:23:46;101970.65;;;13.57;100.00
34241;BME280;20503;50.200;19.508;2023-05-25T18:28:54;101971.98;;;13.40;100.00
34241;BME280;20503;50.200;19.508;2023-05-25T18:34:04;101969.25;;;13.19;100.00
34241;BME280;20503;50.200;19.508;2023-05-25T18:39:10;101983.90;;;13.06;100.00
34241;BME280;20503;50.200;19.508;2023-05-25T18:44:17;101979.45;;;12.90;100.00
34241;BME280;20503;50.200;19.508;2023-05-25T18:49:25;101986.44;;;12.72;100.00
34241;BME280;20503;50.200;19.508;2023-05-25T18:54:34;101965.72;;;12.40;100.00
34241;BME280;20503;50.200;19.508;2023-05-25T18:59:41;101990.55;;;12.32;100.00
34241;BME280;20503;50.200;19.508;2023-05-25T19:04:49;101996.43;;;12.29;100.00
34241;BME280;20503;50.200;19.508;2023-05-25T19:09:56;101990.63;;;12.24;100.00
34241;BME280;20503;50.200;19.508;2023-05-25T19:15:04;102000.48;;;12.19;100.00
34241;BME280;20503;50.200;19.508;2023-05-25T19:20:12;102002.55;;;12.17;100.00
34241;BME280;20503;50.200;19.508;2023-05-25T19:25:19;102007.00;;;12.18;100.00
34241;BME280;20503;50.200;19.508;2023-05-25T19:30:27;102007.60;;;12.13;100.00
34241;BME280;20503;50.200;19.508;2023-05-25T19:35:35;102012.98;;;12.07;100.00
34241;BME280;20503;50.200;19.508;2023-05-25T19:40:43;102010.31;;;11.99;100.00
34241;BME280;20503;50.200;19.508;2023-05-25T19:45:51;102014.74;;;11.85;100.00
34241;BME280;20503;50.200;19.508;2023-05-25T19:50:59;102013.30;;;11.75;100.00
34241;BME280;20503;50.200;19.508;2023-05-25T19:56:07;102015.28;;;11.66;100.00
34241;BME280;20503;50.200;19.508;2023-05-25T20:01:14;102006.27;;;11.58;100.00
34241;BME280;20503;50.200;19.508;2023-05-25T20:06:22;102010.83;;;11.65;100.00
34241;BME280;20503;50.200;19.508;2023-05-25T20:11:30;102000.70;;;11.66;100.00
34241;BME280;20503;50.200;19.508;2023-05-25T20:16:38;102007.88;;;11.67;100.00
34241;BME280;20503;50.200;19.508;2023-05-25T20:21:47;102006.39;;;11.64;100.00
34241;BME280;20503;50.200;19.508;2023-05-25T20:26:54;68209.37;;;11.51;100.00
34241;BME280;20503;50.200;19.508;2023-05-25T20:32:01;68224.20;;;11.64;100.00
34241;BME280;20503;50.200;19.508;2023-05-25T20:37:09;68208.67;;;11.48;100.00
34241;BME280;20503;50.200;19.508;2023-05-25T20:42:17;68200.41;;;11.45;100.00
34241;BME280;20503;50.200;19.508;2023-05-25T20:47:25;68213.36;;;11.54;100.00
34241;BME280;20503;50.200;19.508;2023-05-25T20:52:32;68209.80;;;11.49;100.00
34241;BME280;20503;50.200;19.508;2023-05-25T20:57:41;68222.36;;;11.60;100.00
34241;BME280;20503;50.200;19.508;2023-05-25T21:02:49;68227.17;;;11.69;100.00
34241;BME280;20503;50.200;19.508;2023-05-25T21:07:57;68250.72;;;11.82;100.00
34241;BME280;20503;50.200;19.508;2023-05-25T21:13:05;68262.93;;;11.98;100.00
34241;BME280;20503;50.200;19.508;2023-05-25T21:18:12;68271.17;;;12.10;100.00
34241;BME280;20503;50.200;19.508;2023-05-25T21:23:20;68285.46;;;12.13;100.00
34241;BME280;20503;50.200;19.508;2023-05-25T21:28:28;68294.59;;;12.21;100.00
34241;BME280;20503;50.200;19.508;2023-05-25T21:33:36;68302.81;;;12.33;100.00
34241;BME280;20503;50.200;19.508;2023-05-25T21:38:44;68310.67;;;12.37;100.00
34241;BME280;20503;50.200;19.508;2023-05-25T21:43:52;68313.34;;;12.47;100.00
34241;BME280;20503;50.200;19.508;2023-05-25T21:49:01;68334.48;;;12.56;100.00
34241;BME280;20503;50.200;19.508;2023-05-25T21:54:08;68331.88;;;12.58;100.00
34241;BME280;20503;50.200;19.508;2023-05-25T21:59:16;68339.29;;;12.65;100.00
34241;BME280;20503;50.200;19.508;2023-05-25T22:04:24;68348.29;;;12.70;100.00
34241;BME280;20503;50.200;19.508;2023-05-25T22:09:32;68358.29;;;12.74;100.00
34241;BME280;20503;50.200;19.508;2023-05-25T22:14:40;68343.43;;;12.71;100.00
34241;BME280;20503;50.200;19.508;2023-05-25T22:19:47;68347.28;;;12.72;100.00
34241;BME280;20503;50.200;19.508;2023-05-25T22:24:55;68344.43;;;12.69;100.00
34241;BME280;20503;50.200;19.508;2023-05-25T22:30:03;68348.87;;;12.71;100.00
34241;BME280;20503;50.200;19.508;2023-05-25T22:35:11;68346.01;;;12.68;100.00
34241;BME280;20503;50.200;19.508;2023-05-25T22:40:20;68334.73;;;12.61;100.00
34241;BME280;20503;50.200;19.508;2023-05-25T22:45:27;68325.18;;;12.55;100.00
34241;BME280;20503;50.200;19.508;2023-05-25T22:50:36;68326.05;;;12.51;100.00
34241;BME280;20503;50.200;19.508;2023-05-25T22:55:43;68324.35;;;12.49;100.00
34241;BME280;20503;50.200;19.508;2023-05-25T23:00:51;68335.05;;;12.56;100.00
34241;BME280;20503;50.200;19.508;2023-05-25T23:05:59;68324.35;;;12.49;100.00
34241;BME280;20503;50.200;19.508;2023-05-25T23:11:07;68303.25;;;12.31;100.00
34241;BME280;20503;50.200;19.508;2023-05-25T23:16:16;68307.95;;;12.37;100.00
34241;BME280;20503;50.200;19.508;2023-05-25T23:21:24;68305.23;;;12.37;100.00
34241;BME280;20503;50.200;19.508;2023-05-25T23:26:32;68317.50;;;12.43;100.00
34241;BME280;20503;50.200;19.508;2023-05-25T23:31:40;68323.22;;;12.48;100.00
34241;BME280;20503;50.200;19.508;2023-05-25T23:36:47;68323.91;;;12.51;100.00
34241;BME280;20503;50.200;19.508;2023-05-25T23:41:55;68327.32;;;12.54;100.00
34241;BME280;20503;50.200;19.508;2023-05-25T23:47:03;68327.91;;;12.55;100.00
34241;BME280;20503;50.200;19.508;2023-05-25T23:52:11;68339.63;;;12.60;100.00
34241;BME280;20503;50.200;19.508;2023-05-25T23:57:19;68340.31;;;12.63;100.00
